sensor_id;sensor_type;location;lat;lon;timestamp;P1;durP1;ratioP1;P2;durP2;ratioP2
75386;SDS011;63966;47.914;22.266;2023-07-16T00:01:38;9.67;;;5.07;;
75386;SDS011;63966;47.914;22.266;2023-07-16T00:04:50;8.93;;;5.33;;
75386;SDS011;63966;47.914;22.266;2023-07-16T00:08:24;10.75;;;6.03;;
75386;SDS011;63966;47.914;22.266;2023-07-16T00:11:28;9.57;;;6.00;;
75386;SDS011;63966;47.914;22.266;2023-07-16T00:14:31;9.00;;;5.30;;
75386;SDS011;63966;47.914;22.266;2023-07-16T00:17:35;8.23;;;5.40;;
75386;SDS011;63966;47.914;22.266;2023-07-16T00:20:38;7.87;;;5.30;;
75386;SDS011;63966;47.914;22.266;2023-07-16T00:23:42;9.45;;;5.70;;
75386;SDS011;63966;47.914;22.266;2023-07-16T00:26:45;7.63;;;5.10;;
75386;SDS011;63966;47.914;22.266;2023-07-16T00:29:49;8.45;;;5.20;;
75386;SDS011;63966;47.914;22.266;2023-07-16T00:32:53;8.50;;;5.20;;
75386;SDS011;63966;47.914;22.266;2023-07-16T00:35:57;7.37;;;4.90;;
75386;SDS011;63966;47.914;22.266;2023-07-16T00:39:01;8.52;;;5.30;;
75386;SDS011;63966;47.914;22.266;2023-07-16T00:42:04;9.43;;;5.60;;
75386;SDS011;63966;47.914;22.266;2023-07-16T00:45:12;8.65;;;5.53;;
75386;SDS011;63966;47.914;22.266;2023-07-16T00:48:17;8.50;;;5.50;;
75386;SDS011;63966;47.914;22.266;2023-07-16T00:51:22;8.90;;;6.37;;
75386;SDS011;63966;47.914;22.266;2023-07-16T00:54:29;9.50;;;5.85;;
75386;SDS011;63966;47.914;22.266;2023-07-16T00:57:33;8.13;;;6.20;;
75386;SDS011;63966;47.914;22.266;2023-07-16T01:00:38;9.00;;;6.40;;
75386;SDS011;63966;47.914;22.266;2023-07-16T01:03:48;9.43;;;6.53;;
75386;SDS011;63966;47.914;22.266;2023-07-16T01:06:53;8.07;;;5.10;;
75386;SDS011;63966;47.914;22.266;2023-07-16T01:10:00;9.15;;;6.07;;
75386;SDS011;63966;47.914;22.266;2023-07-16T01:13:04;8.57;;;5.43;;
75386;SDS011;63966;47.914;22.266;2023-07-16T01:16:29;9.80;;;5.88;;
75386;SDS011;63966;47.914;22.266;2023-07-16T01:19:33;8.77;;;5.33;;
75386;SDS011;63966;47.914;22.266;2023-07-16T01:32:33;9.68;;;5.88;;
75386;SDS011;63966;47.914;22.266;2023-07-16T01:35:38;10.03;;;5.47;;
75386;SDS011;63966;47.914;22.266;2023-07-16T01:38:44;10.73;;;6.67;;
75386;SDS011;63966;47.914;22.266;2023-07-16T01:41:48;9.70;;;6.63;;
75386;SDS011;63966;47.914;22.266;2023-07-16T01:44:53;10.40;;;7.30;;
75386;SDS011;63966;47.914;22.266;2023-07-16T01:48:12;12.77;;;7.38;;
75386;SDS011;63966;47.914;22.266;2023-07-16T01:51:37;10.30;;;7.07;;
75386;SDS011;63966;47.914;22.266;2023-07-16T01:54:41;12.30;;;6.60;;
75386;SDS011;63966;47.914;22.266;2023-07-16T01:57:44;11.80;;;6.82;;
75386;SDS011;63966;47.914;22.266;2023-07-16T02:00:49;13.63;;;7.28;;
75386;SDS011;63966;47.914;22.266;2023-07-16T02:03:56;10.50;;;6.82;;
75386;SDS011;63966;47.914;22.266;2023-07-16T02:07:01;12.90;;;7.27;;
75386;SDS011;63966;47.914;22.266;2023-07-16T02:10:04;11.07;;;6.53;;
75386;SDS011;63966;47.914;22.266;2023-07-16T02:13:09;10.18;;;6.88;;
75386;SDS011;63966;47.914;22.266;2023-07-16T02:16:12;10.25;;;6.93;;
75386;SDS011;63966;47.914;22.266;2023-07-16T02:19:17;10.45;;;6.18;;
75386;SDS011;63966;47.914;22.266;2023-07-16T02:22:20;13.47;;;6.63;;
75386;SDS011;63966;47.914;22.266;2023-07-16T02:25:24;10.70;;;6.87;;
75386;SDS011;63966;47.914;22.266;2023-07-16T02:28:28;11.18;;;7.05;;
75386;SDS011;63966;47.914;22.266;2023-07-16T02:31:31;14.18;;;8.15;;
75386;SDS011;63966;47.914;22.266;2023-07-16T02:34:37;12.13;;;7.60;;
75386;SDS011;63966;47.914;22.266;2023-07-16T02:37:40;12.33;;;7.97;;
75386;SDS011;63966;47.914;22.266;2023-07-16T02:40:44;12.37;;;7.73;;
75386;SDS011;63966;47.914;22.266;2023-07-16T02:43:58;12.57;;;8.00;;
75386;SDS011;63966;47.914;22.266;2023-07-16T02:47:03;11.90;;;8.40;;
75386;SDS011;63966;47.914;22.266;2023-07-16T02:50:06;12.27;;;8.32;;
75386;SDS011;63966;47.914;22.266;2023-07-16T02:53:10;14.17;;;8.63;;
75386;SDS011;63966;47.914;22.266;2023-07-16T02:56:14;12.67;;;7.80;;
75386;SDS011;63966;47.914;22.266;2023-07-16T02:59:19;11.95;;;7.72;;
75386;SDS011;63966;47.914;22.266;2023-07-16T03:02:22;11.88;;;7.82;;
75386;SDS011;63966;47.914;22.266;2023-07-16T03:05:27;11.73;;;7.88;;
75386;SDS011;63966;47.914;22.266;2023-07-16T03:08:32;12.67;;;8.43;;
75386;SDS011;63966;47.914;22.266;2023-07-16T03:11:37;11.57;;;7.70;;
75386;SDS011;63966;47.914;22.266;2023-07-16T03:14:41;12.43;;;7.63;;
75386;SDS011;63966;47.914;22.266;2023-07-16T03:17:46;11.93;;;7.47;;
75386;SDS011;63966;47.914;22.266;2023-07-16T03:20:49;12.95;;;8.07;;
75386;SDS011;63966;47.914;22.266;2023-07-16T03:23:53;10.80;;;7.87;;
75386;SDS011;63966;47.914;22.266;2023-07-16T03:26:57;12.03;;;7.33;;
75386;SDS011;63966;47.914;22.266;2023-07-16T03:30:19;14.40;;;7.93;;
75386;SDS011;63966;47.914;22.266;2023-07-16T03:33:23;10.18;;;7.03;;
75386;SDS011;63966;47.914;22.266;2023-07-16T03:36:26;11.43;;;6.80;;
75386;SDS011;63966;47.914;22.266;2023-07-16T03:39:30;8.80;;;6.37;;
75386;SDS011;63966;47.914;22.266;2023-07-16T03:42:36;11.07;;;6.40;;
75386;SDS011;63966;47.914;22.266;2023-07-16T03:45:41;10.85;;;6.82;;
75386;SDS011;63966;47.914;22.266;2023-07-16T03:48:45;8.90;;;6.22;;
75386;SDS011;63966;47.914;22.266;2023-07-16T03:51:49;9.60;;;6.43;;
75386;SDS011;63966;47.914;22.266;2023-07-16T03:54:53;9.90;;;6.63;;
75386;SDS011;63966;47.914;22.266;2023-07-16T03:57:57;9.40;;;6.30;;
75386;SDS011;63966;47.914;22.266;2023-07-16T04:01:01;9.27;;;6.38;;
75386;SDS011;63966;47.914;22.266;2023-07-16T04:04:05;8.95;;;6.18;;
75386;SDS011;63966;47.914;22.266;2023-07-16T04:07:08;9.57;;;6.70;;
75386;SDS011;63966;47.914;22.266;2023-07-16T04:10:12;10.60;;;6.28;;
75386;SDS011;63966;47.914;22.266;2023-07-16T04:13:16;11.93;;;6.17;;
75386;SDS011;63966;47.914;22.266;2023-07-16T04:16:19;8.95;;;5.88;;
75386;SDS011;63966;47.914;22.266;2023-07-16T04:19:23;9.07;;;6.50;;
75386;SDS011;63966;47.914;22.266;2023-07-16T04:22:26;9.63;;;5.75;;
75386;SDS011;63966;47.914;22.266;2023-07-16T04:25:30;10.55;;;6.20;;
75386;SDS011;63966;47.914;22.266;2023-07-16T04:28:33;10.20;;;6.13;;
75386;SDS011;63966;47.914;22.266;2023-07-16T04:31:37;8.63;;;5.88;;
75386;SDS011;63966;47.914;22.266;2023-07-16T04:34:40;9.73;;;6.45;;
75386;SDS011;63966;47.914;22.266;2023-07-16T04:37:44;10.45;;;5.75;;
75386;SDS011;63966;47.914;22.266;2023-07-16T04:40:47;8.75;;;5.82;;
75386;SDS011;63966;47.914;22.266;2023-07-16T04:43:53;8.57;;;6.10;;
75386;SDS011;63966;47.914;22.266;2023-07-16T04:46:56;7.75;;;5.57;;
75386;SDS011;63966;47.914;22.266;2023-07-16T04:50:00;11.57;;;6.40;;
75386;SDS011;63966;47.914;22.266;2023-07-16T04:53:04;9.20;;;6.18;;
75386;SDS011;63966;47.914;22.266;2023-07-16T04:56:11;9.00;;;5.85;;
75386;SDS011;63966;47.914;22.266;2023-07-16T04:59:17;8.43;;;6.53;;
75386;SDS011;63966;47.914;22.266;2023-07-16T05:02:20;9.98;;;5.90;;
75386;SDS011;63966;47.914;22.266;2023-07-16T05:05:23;8.00;;;5.68;;
75386;SDS011;63966;47.914;22.266;2023-07-16T05:08:30;9.07;;;6.07;;
75386;SDS011;63966;47.914;22.266;2023-07-16T05:11:34;8.07;;;6.00;;
75386;SDS011;63966;47.914;22.266;2023-07-16T05:14:47;9.60;;;6.03;;
75386;SDS011;63966;47.914;22.266;2023-07-16T05:17:51;8.65;;;6.35;;
75386;SDS011;63966;47.914;22.266;2023-07-16T05:20:54;9.95;;;6.32;;
75386;SDS011;63966;47.914;22.266;2023-07-16T05:23:58;10.15;;;6.50;;
75386;SDS011;63966;47.914;22.266;2023-07-16T05:27:01;9.65;;;6.40;;
75386;SDS011;63966;47.914;22.266;2023-07-16T05:30:05;8.70;;;6.10;;
75386;SDS011;63966;47.914;22.266;2023-07-16T05:33:10;8.20;;;5.97;;
75386;SDS011;63966;47.914;22.266;2023-07-16T05:36:14;10.73;;;6.72;;
75386;SDS011;63966;47.914;22.266;2023-07-16T05:39:23;8.48;;;5.95;;
75386;SDS011;63966;47.914;22.266;2023-07-16T05:42:27;8.43;;;6.47;;
75386;SDS011;63966;47.914;22.266;2023-07-16T05:45:30;10.10;;;6.37;;
75386;SDS011;63966;47.914;22.266;2023-07-16T05:48:34;10.18;;;6.50;;
75386;SDS011;63966;47.914;22.266;2023-07-16T05:51:37;8.60;;;5.97;;
75386;SDS011;63966;47.914;22.266;2023-07-16T05:54:42;9.38;;;6.50;;
75386;SDS011;63966;47.914;22.266;2023-07-16T05:57:47;8.77;;;6.55;;
75386;SDS011;63966;47.914;22.266;2023-07-16T06:00:59;8.27;;;6.60;;
75386;SDS011;63966;47.914;22.266;2023-07-16T06:04:03;8.13;;;6.18;;
75386;SDS011;63966;47.914;22.266;2023-07-16T06:07:06;10.30;;;7.50;;
75386;SDS011;63966;47.914;22.266;2023-07-16T06:10:10;8.93;;;7.60;;
75386;SDS011;63966;47.914;22.266;2023-07-16T06:13:13;11.68;;;7.25;;
75386;SDS011;63966;47.914;22.266;2023-07-16T06:16:17;9.33;;;6.60;;
75386;SDS011;63966;47.914;22.266;2023-07-16T06:19:21;9.68;;;7.03;;
75386;SDS011;63966;47.914;22.266;2023-07-16T06:22:25;10.98;;;7.47;;
75386;SDS011;63966;47.914;22.266;2023-07-16T06:25:29;9.90;;;7.78;;
75386;SDS011;63966;47.914;22.266;2023-07-16T06:28:32;9.20;;;7.75;;
75386;SDS011;63966;47.914;22.266;2023-07-16T06:31:42;10.07;;;8.10;;
75386;SDS011;63966;47.914;22.266;2023-07-16T06:34:56;10.77;;;7.63;;
75386;SDS011;63966;47.914;22.266;2023-07-16T06:38:00;8.90;;;7.22;;
75386;SDS011;63966;47.914;22.266;2023-07-16T06:41:03;9.63;;;6.97;;
75386;SDS011;63966;47.914;22.266;2023-07-16T06:44:07;8.32;;;7.03;;
75386;SDS011;63966;47.914;22.266;2023-07-16T06:47:11;9.90;;;7.07;;
75386;SDS011;63966;47.914;22.266;2023-07-16T06:50:14;9.32;;;6.82;;
75386;SDS011;63966;47.914;22.266;2023-07-16T06:53:18;8.93;;;7.28;;
75386;SDS011;63966;47.914;22.266;2023-07-16T06:56:21;10.38;;;7.80;;
75386;SDS011;63966;47.914;22.266;2023-07-16T06:59:25;9.10;;;7.70;;
75386;SDS011;63966;47.914;22.266;2023-07-16T07:02:28;8.23;;;6.90;;
75386;SDS011;63966;47.914;22.266;2023-07-16T07:05:32;9.02;;;6.78;;
75386;SDS011;63966;47.914;22.266;2023-07-16T07:08:38;8.52;;;7.18;;
75386;SDS011;63966;47.914;22.266;2023-07-16T07:11:41;12.00;;;8.02;;
75386;SDS011;63966;47.914;22.266;2023-07-16T07:14:46;9.23;;;7.35;;
75386;SDS011;63966;47.914;22.266;2023-07-16T07:17:50;10.17;;;7.50;;
75386;SDS011;63966;47.914;22.266;2023-07-16T07:20:54;10.32;;;6.93;;
75386;SDS011;63966;47.914;22.266;2023-07-16T07:23:57;9.60;;;7.40;;
75386;SDS011;63966;47.914;22.266;2023-07-16T07:27:01;8.82;;;6.80;;
75386;SDS011;63966;47.914;22.266;2023-07-16T07:30:05;8.82;;;6.60;;
75386;SDS011;63966;47.914;22.266;2023-07-16T07:33:09;9.13;;;7.23;;
75386;SDS011;63966;47.914;22.266;2023-07-16T07:36:13;7.30;;;6.13;;
75386;SDS011;63966;47.914;22.266;2023-07-16T07:39:16;9.68;;;7.15;;
75386;SDS011;63966;47.914;22.266;2023-07-16T07:42:20;9.73;;;6.75;;
75386;SDS011;63966;47.914;22.266;2023-07-16T07:45:26;10.05;;;6.30;;
75386;SDS011;63966;47.914;22.266;2023-07-16T07:48:30;10.27;;;6.77;;
75386;SDS011;63966;47.914;22.266;2023-07-16T07:51:33;9.15;;;6.60;;
75386;SDS011;63966;47.914;22.266;2023-07-16T07:54:41;8.18;;;6.65;;
75386;SDS011;63966;47.914;22.266;2023-07-16T07:57:44;6.90;;;5.88;;
75386;SDS011;63966;47.914;22.266;2023-07-16T08:00:48;8.05;;;6.72;;
75386;SDS011;63966;47.914;22.266;2023-07-16T08:03:51;8.93;;;7.23;;
75386;SDS011;63966;47.914;22.266;2023-07-16T08:06:55;8.68;;;7.00;;
75386;SDS011;63966;47.914;22.266;2023-07-16T08:09:59;7.93;;;6.53;;
75386;SDS011;63966;47.914;22.266;2023-07-16T08:13:02;9.23;;;6.45;;
75386;SDS011;63966;47.914;22.266;2023-07-16T08:16:08;8.70;;;6.65;;
75386;SDS011;63966;47.914;22.266;2023-07-16T08:19:30;8.33;;;6.13;;
75386;SDS011;63966;47.914;22.266;2023-07-16T08:22:34;8.57;;;6.68;;
75386;SDS011;63966;47.914;22.266;2023-07-16T08:25:40;8.50;;;6.15;;
75386;SDS011;63966;47.914;22.266;2023-07-16T08:28:44;8.63;;;6.03;;
75386;SDS011;63966;47.914;22.266;2023-07-16T08:31:49;8.00;;;6.07;;
75386;SDS011;63966;47.914;22.266;2023-07-16T08:34:53;8.20;;;6.10;;
75386;SDS011;63966;47.914;22.266;2023-07-16T08:37:56;7.22;;;5.47;;
75386;SDS011;63966;47.914;22.266;2023-07-16T08:41:00;8.35;;;6.05;;
75386;SDS011;63966;47.914;22.266;2023-07-16T08:44:04;8.48;;;5.75;;
75386;SDS011;63966;47.914;22.266;2023-07-16T08:47:07;9.65;;;6.20;;
75386;SDS011;63966;47.914;22.266;2023-07-16T08:50:11;8.00;;;5.73;;
75386;SDS011;63966;47.914;22.266;2023-07-16T08:53:15;7.35;;;5.65;;
75386;SDS011;63966;47.914;22.266;2023-07-16T08:56:22;7.97;;;5.47;;
75386;SDS011;63966;47.914;22.266;2023-07-16T08:59:27;8.15;;;5.57;;
75386;SDS011;63966;47.914;22.266;2023-07-16T09:02:30;7.65;;;5.47;;
75386;SDS011;63966;47.914;22.266;2023-07-16T09:05:34;8.37;;;5.67;;
75386;SDS011;63966;47.914;22.266;2023-07-16T09:08:42;7.88;;;5.65;;
75386;SDS011;63966;47.914;22.266;2023-07-16T09:11:48;7.22;;;5.10;;
75386;SDS011;63966;47.914;22.266;2023-07-16T09:14:54;8.23;;;5.63;;
75386;SDS011;63966;47.914;22.266;2023-07-16T09:17:57;7.30;;;5.43;;
75386;SDS011;63966;47.914;22.266;2023-07-16T09:21:01;7.30;;;5.00;;
75386;SDS011;63966;47.914;22.266;2023-07-16T09:24:06;8.48;;;5.00;;
75386;SDS011;63966;47.914;22.266;2023-07-16T09:27:13;6.15;;;4.38;;
75386;SDS011;63966;47.914;22.266;2023-07-16T09:30:18;6.95;;;4.65;;
75386;SDS011;63966;47.914;22.266;2023-07-16T09:33:22;8.82;;;4.70;;
75386;SDS011;63966;47.914;22.266;2023-07-16T09:36:28;7.17;;;4.73;;
75386;SDS011;63966;47.914;22.266;2023-07-16T09:39:32;7.25;;;4.70;;
75386;SDS011;63966;47.914;22.266;2023-07-16T09:42:40;9.18;;;4.60;;
75386;SDS011;63966;47.914;22.266;2023-07-16T09:45:45;6.78;;;4.63;;
75386;SDS011;63966;47.914;22.266;2023-07-16T09:48:48;7.45;;;4.70;;
75386;SDS011;63966;47.914;22.266;2023-07-16T09:51:52;6.57;;;4.37;;
75386;SDS011;63966;47.914;22.266;2023-07-16T09:55:03;7.20;;;4.65;;
75386;SDS011;63966;47.914;22.266;2023-07-16T09:58:08;7.47;;;5.30;;
75386;SDS011;63966;47.914;22.266;2023-07-16T10:01:14;8.82;;;4.35;;
75386;SDS011;63966;47.914;22.266;2023-07-16T10:04:19;6.90;;;4.50;;
75386;SDS011;63966;47.914;22.266;2023-07-16T10:07:24;5.87;;;4.30;;
75386;SDS011;63966;47.914;22.266;2023-07-16T10:13:51;8.85;;;4.47;;
75386;SDS011;63966;47.914;22.266;2023-07-16T10:17:00;8.52;;;4.50;;
75386;SDS011;63966;47.914;22.266;2023-07-16T10:23:13;9.00;;;4.43;;
75386;SDS011;63966;47.914;22.266;2023-07-16T10:26:25;6.22;;;3.50;;
75386;SDS011;63966;47.914;22.266;2023-07-16T10:29:32;6.40;;;3.95;;
75386;SDS011;63966;47.914;22.266;2023-07-16T10:32:39;7.18;;;4.03;;
75386;SDS011;63966;47.914;22.266;2023-07-16T10:35:44;6.10;;;4.10;;
75386;SDS011;63966;47.914;22.266;2023-07-16T10:38:48;6.53;;;3.73;;
75386;SDS011;63966;47.914;22.266;2023-07-16T10:41:51;6.50;;;3.80;;
75386;SDS011;63966;47.914;22.266;2023-07-16T10:44:59;7.28;;;4.22;;
75386;SDS011;63966;47.914;22.266;2023-07-16T10:48:04;7.05;;;4.18;;
75386;SDS011;63966;47.914;22.266;2023-07-16T10:51:08;7.90;;;4.00;;
75386;SDS011;63966;47.914;22.266;2023-07-16T10:54:11;6.90;;;3.83;;
75386;SDS011;63966;47.914;22.266;2023-07-16T10:57:16;5.93;;;3.90;;
75386;SDS011;63966;47.914;22.266;2023-07-16T11:00:21;6.38;;;3.90;;
75386;SDS011;63966;47.914;22.266;2023-07-16T11:03:26;8.75;;;3.78;;
75386;SDS011;63966;47.914;22.266;2023-07-16T11:06:30;6.80;;;4.20;;
75386;SDS011;63966;47.914;22.266;2023-07-16T11:09:40;6.57;;;4.07;;
75386;SDS011;63966;47.914;22.266;2023-07-16T11:12:51;8.60;;;4.00;;
75386;SDS011;63966;47.914;22.266;2023-07-16T11:15:56;6.05;;;3.70;;
75386;SDS011;63966;47.914;22.266;2023-07-16T11:19:12;5.82;;;3.88;;
75386;SDS011;63966;47.914;22.266;2023-07-16T11:22:25;5.80;;;4.07;;
75386;SDS011;63966;47.914;22.266;2023-07-16T11:25:30;6.93;;;4.30;;
75386;SDS011;63966;47.914;22.266;2023-07-16T11:28:40;5.70;;;3.70;;
75386;SDS011;63966;47.914;22.266;2023-07-16T11:31:44;7.80;;;3.78;;
75386;SDS011;63966;47.914;22.266;2023-07-16T11:34:54;8.00;;;4.07;;
75386;SDS011;63966;47.914;22.266;2023-07-16T11:37:58;7.25;;;3.90;;
75386;SDS011;63966;47.914;22.266;2023-07-16T11:41:02;6.43;;;3.80;;
75386;SDS011;63966;47.914;22.266;2023-07-16T11:44:09;6.25;;;3.30;;
75386;SDS011;63966;47.914;22.266;2023-07-16T11:47:13;6.72;;;3.92;;
75386;SDS011;63966;47.914;22.266;2023-07-16T11:50:17;6.50;;;3.65;;
75386;SDS011;63966;47.914;22.266;2023-07-16T11:53:21;6.75;;;4.15;;
75386;SDS011;63966;47.914;22.266;2023-07-16T11:56:25;6.83;;;3.90;;
75386;SDS011;63966;47.914;22.266;2023-07-16T11:59:28;7.85;;;4.00;;
75386;SDS011;63966;47.914;22.266;2023-07-16T12:02:36;7.10;;;3.60;;
75386;SDS011;63966;47.914;22.266;2023-07-16T12:05:40;6.82;;;4.03;;
75386;SDS011;63966;47.914;22.266;2023-07-16T12:08:54;6.22;;;3.97;;
75386;SDS011;63966;47.914;22.266;2023-07-16T12:11:59;7.20;;;3.80;;
75386;SDS011;63966;47.914;22.266;2023-07-16T12:15:02;6.90;;;3.88;;
75386;SDS011;63966;47.914;22.266;2023-07-16T12:18:10;7.13;;;3.83;;
75386;SDS011;63966;47.914;22.266;2023-07-16T12:21:13;5.97;;;3.35;;
75386;SDS011;63966;47.914;22.266;2023-07-16T12:24:17;6.80;;;3.50;;
75386;SDS011;63966;47.914;22.266;2023-07-16T12:27:24;6.37;;;3.87;;
75386;SDS011;63966;47.914;22.266;2023-07-16T12:30:27;6.47;;;3.80;;
75386;SDS011;63966;47.914;22.266;2023-07-16T12:33:31;7.90;;;4.00;;
75386;SDS011;63966;47.914;22.266;2023-07-16T12:36:36;5.93;;;3.92;;
75386;SDS011;63966;47.914;22.266;2023-07-16T12:39:39;7.00;;;4.22;;
75386;SDS011;63966;47.914;22.266;2023-07-16T12:42:43;5.50;;;3.70;;
75386;SDS011;63966;47.914;22.266;2023-07-16T12:45:47;6.13;;;4.05;;
75386;SDS011;63966;47.914;22.266;2023-07-16T12:48:51;7.22;;;3.95;;
75386;SDS011;63966;47.914;22.266;2023-07-16T12:51:57;6.65;;;3.30;;
75386;SDS011;63966;47.914;22.266;2023-07-16T12:55:04;6.22;;;3.83;;
75386;SDS011;63966;47.914;22.266;2023-07-16T12:58:08;8.27;;;3.77;;
75386;SDS011;63966;47.914;22.266;2023-07-16T13:01:11;7.25;;;3.65;;
75386;SDS011;63966;47.914;22.266;2023-07-16T13:04:15;5.88;;;3.28;;
75386;SDS011;63966;47.914;22.266;2023-07-16T13:07:19;6.03;;;3.60;;
75386;SDS011;63966;47.914;22.266;2023-07-16T13:10:22;6.35;;;3.65;;
75386;SDS011;63966;47.914;22.266;2023-07-16T13:13:26;7.17;;;4.03;;
75386;SDS011;63966;47.914;22.266;2023-07-16T13:16:29;6.03;;;3.40;;
75386;SDS011;63966;47.914;22.266;2023-07-16T13:19:33;7.20;;;3.67;;
75386;SDS011;63966;47.914;22.266;2023-07-16T13:22:37;6.85;;;4.07;;
75386;SDS011;63966;47.914;22.266;2023-07-16T13:25:41;6.20;;;3.90;;
75386;SDS011;63966;47.914;22.266;2023-07-16T13:28:44;7.43;;;3.63;;
75386;SDS011;63966;47.914;22.266;2023-07-16T13:31:49;8.02;;;3.70;;
75386;SDS011;63966;47.914;22.266;2023-07-16T13:34:53;7.85;;;3.80;;
75386;SDS011;63966;47.914;22.266;2023-07-16T13:37:57;7.18;;;3.60;;
75386;SDS011;63966;47.914;22.266;2023-07-16T13:41:01;7.18;;;4.13;;
75386;SDS011;63966;47.914;22.266;2023-07-16T13:44:05;7.50;;;3.73;;
75386;SDS011;63966;47.914;22.266;2023-07-16T13:47:09;6.15;;;3.70;;
75386;SDS011;63966;47.914;22.266;2023-07-16T13:50:13;7.57;;;3.70;;
75386;SDS011;63966;47.914;22.266;2023-07-16T13:53:20;8.30;;;3.60;;
75386;SDS011;63966;47.914;22.266;2023-07-16T13:56:23;5.93;;;3.70;;
75386;SDS011;63966;47.914;22.266;2023-07-16T13:59:31;7.03;;;3.53;;
75386;SDS011;63966;47.914;22.266;2023-07-16T14:02:35;6.45;;;3.80;;
75386;SDS011;63966;47.914;22.266;2023-07-16T14:05:39;5.72;;;3.70;;
75386;SDS011;63966;47.914;22.266;2023-07-16T14:08:43;6.93;;;4.00;;
75386;SDS011;63966;47.914;22.266;2023-07-16T14:11:46;6.13;;;3.40;;
75386;SDS011;63966;47.914;22.266;2023-07-16T14:14:50;6.20;;;3.50;;
75386;SDS011;63966;47.914;22.266;2023-07-16T14:17:53;6.53;;;3.55;;
75386;SDS011;63966;47.914;22.266;2023-07-16T14:20:57;6.60;;;3.30;;
75386;SDS011;63966;47.914;22.266;2023-07-16T14:24:00;7.32;;;3.63;;
75386;SDS011;63966;47.914;22.266;2023-07-16T14:27:08;5.70;;;3.70;;
75386;SDS011;63966;47.914;22.266;2023-07-16T14:30:12;8.30;;;3.90;;
75386;SDS011;63966;47.914;22.266;2023-07-16T14:33:15;6.35;;;3.40;;
75386;SDS011;63966;47.914;22.266;2023-07-16T14:36:19;6.82;;;3.85;;
75386;SDS011;63966;47.914;22.266;2023-07-16T14:39:24;8.95;;;3.70;;
75386;SDS011;63966;47.914;22.266;2023-07-16T14:42:28;6.40;;;3.67;;
75386;SDS011;63966;47.914;22.266;2023-07-16T14:45:31;6.80;;;4.03;;
75386;SDS011;63966;47.914;22.266;2023-07-16T14:48:36;5.10;;;3.40;;
75386;SDS011;63966;47.914;22.266;2023-07-16T14:51:41;8.45;;;3.90;;
75386;SDS011;63966;47.914;22.266;2023-07-16T14:54:44;7.22;;;4.10;;
75386;SDS011;63966;47.914;22.266;2023-07-16T14:57:48;5.47;;;3.83;;
75386;SDS011;63966;47.914;22.266;2023-07-16T15:00:52;6.00;;;3.80;;
75386;SDS011;63966;47.914;22.266;2023-07-16T15:03:58;5.63;;;3.70;;
75386;SDS011;63966;47.914;22.266;2023-07-16T15:07:02;6.95;;;3.80;;
75386;SDS011;63966;47.914;22.266;2023-07-16T15:10:09;8.38;;;3.75;;
75386;SDS011;63966;47.914;22.266;2023-07-16T15:13:13;8.07;;;3.90;;
75386;SDS011;63966;47.914;22.266;2023-07-16T15:16:17;7.10;;;3.50;;
75386;SDS011;63966;47.914;22.266;2023-07-16T15:19:21;6.72;;;3.55;;
75386;SDS011;63966;47.914;22.266;2023-07-16T15:22:25;7.07;;;3.38;;
75386;SDS011;63966;47.914;22.266;2023-07-16T15:25:33;7.18;;;3.80;;
75386;SDS011;63966;47.914;22.266;2023-07-16T15:28:38;7.05;;;3.75;;
75386;SDS011;63966;47.914;22.266;2023-07-16T15:31:45;6.13;;;3.80;;
75386;SDS011;63966;47.914;22.266;2023-07-16T15:34:48;8.63;;;3.53;;
75386;SDS011;63966;47.914;22.266;2023-07-16T15:37:55;6.38;;;3.60;;
75386;SDS011;63966;47.914;22.266;2023-07-16T15:41:01;8.20;;;3.80;;
75386;SDS011;63966;47.914;22.266;2023-07-16T15:44:05;5.60;;;3.50;;
75386;SDS011;63966;47.914;22.266;2023-07-16T15:47:08;7.33;;;3.90;;
75386;SDS011;63966;47.914;22.266;2023-07-16T15:50:15;7.95;;;3.70;;
75386;SDS011;63966;47.914;22.266;2023-07-16T15:53:18;5.78;;;3.55;;
75386;SDS011;63966;47.914;22.266;2023-07-16T15:56:23;8.95;;;3.60;;
75386;SDS011;63966;47.914;22.266;2023-07-16T15:59:26;7.10;;;3.80;;
75386;SDS011;63966;47.914;22.266;2023-07-16T16:02:30;6.30;;;3.50;;
75386;SDS011;63966;47.914;22.266;2023-07-16T16:05:33;7.28;;;3.28;;
75386;SDS011;63966;47.914;22.266;2023-07-16T16:08:38;7.40;;;3.53;;
75386;SDS011;63966;47.914;22.266;2023-07-16T16:11:42;7.55;;;3.60;;
75386;SDS011;63966;47.914;22.266;2023-07-16T16:14:48;8.50;;;4.00;;
75386;SDS011;63966;47.914;22.266;2023-07-16T16:17:54;6.57;;;3.60;;
75386;SDS011;63966;47.914;22.266;2023-07-16T16:21:01;5.85;;;3.70;;
75386;SDS011;63966;47.914;22.266;2023-07-16T16:24:05;7.45;;;4.18;;
75386;SDS011;63966;47.914;22.266;2023-07-16T16:27:08;6.18;;;3.80;;
75386;SDS011;63966;47.914;22.266;2023-07-16T16:30:12;7.90;;;3.42;;
75386;SDS011;63966;47.914;22.266;2023-07-16T16:33:15;6.60;;;3.77;;
75386;SDS011;63966;47.914;22.266;2023-07-16T16:36:21;7.20;;;4.00;;
75386;SDS011;63966;47.914;22.266;2023-07-16T16:39:24;8.57;;;4.00;;
75386;SDS011;63966;47.914;22.266;2023-07-16T16:42:28;7.65;;;4.10;;
75386;SDS011;63966;47.914;22.266;2023-07-16T16:45:31;10.80;;;4.40;;
75386;SDS011;63966;47.914;22.266;2023-07-16T16:48:37;8.80;;;4.30;;
75386;SDS011;63966;47.914;22.266;2023-07-16T16:51:43;7.88;;;4.47;;
75386;SDS011;63966;47.914;22.266;2023-07-16T16:54:47;6.32;;;4.28;;
75386;SDS011;63966;47.914;22.266;2023-07-16T16:57:50;6.72;;;3.90;;
75386;SDS011;63966;47.914;22.266;2023-07-16T17:00:54;5.75;;;3.67;;
75386;SDS011;63966;47.914;22.266;2023-07-16T17:04:19;8.10;;;4.00;;
75386;SDS011;63966;47.914;22.266;2023-07-16T17:07:25;7.30;;;4.20;;
75386;SDS011;63966;47.914;22.266;2023-07-16T17:10:28;6.30;;;3.95;;
75386;SDS011;63966;47.914;22.266;2023-07-16T17:13:32;7.47;;;3.70;;
75386;SDS011;63966;47.914;22.266;2023-07-16T17:16:36;6.18;;;4.20;;
75386;SDS011;63966;47.914;22.266;2023-07-16T17:19:41;6.40;;;4.00;;
75386;SDS011;63966;47.914;22.266;2023-07-16T17:22:45;5.93;;;4.00;;
75386;SDS011;63966;47.914;22.266;2023-07-16T17:25:49;6.13;;;4.10;;
75386;SDS011;63966;47.914;22.266;2023-07-16T17:28:52;6.20;;;3.53;;
75386;SDS011;63966;47.914;22.266;2023-07-16T17:31:56;7.60;;;4.00;;
75386;SDS011;63966;47.914;22.266;2023-07-16T17:35:00;7.77;;;3.80;;
75386;SDS011;63966;47.914;22.266;2023-07-16T17:38:03;6.60;;;4.22;;
75386;SDS011;63966;47.914;22.266;2023-07-16T17:41:07;7.38;;;4.00;;
75386;SDS011;63966;47.914;22.266;2023-07-16T17:44:11;8.15;;;4.30;;
75386;SDS011;63966;47.914;22.266;2023-07-16T17:47:15;6.97;;;4.40;;
75386;SDS011;63966;47.914;22.266;2023-07-16T17:50:19;7.23;;;4.23;;
75386;SDS011;63966;47.914;22.266;2023-07-16T17:53:23;6.90;;;4.00;;
75386;SDS011;63966;47.914;22.266;2023-07-16T17:56:26;6.68;;;4.20;;
75386;SDS011;63966;47.914;22.266;2023-07-16T17:59:30;6.97;;;4.45;;
75386;SDS011;63966;47.914;22.266;2023-07-16T18:02:34;7.30;;;4.32;;
75386;SDS011;63966;47.914;22.266;2023-07-16T18:05:38;7.47;;;4.60;;
75386;SDS011;63966;47.914;22.266;2023-07-16T18:08:43;8.85;;;4.57;;
75386;SDS011;63966;47.914;22.266;2023-07-16T18:11:49;7.85;;;5.28;;
75386;SDS011;63966;47.914;22.266;2023-07-16T18:14:53;11.57;;;4.47;;
75386;SDS011;63966;47.914;22.266;2023-07-16T18:17:59;10.75;;;4.40;;
75386;SDS011;63966;47.914;22.266;2023-07-16T18:21:03;10.87;;;5.33;;
75386;SDS011;63966;47.914;22.266;2023-07-16T18:24:14;10.15;;;5.10;;
75386;SDS011;63966;47.914;22.266;2023-07-16T18:27:19;9.60;;;5.05;;
75386;SDS011;63966;47.914;22.266;2023-07-16T18:30:43;7.53;;;4.53;;